Amarillo, Texas
Current Conditions -  °F | °C
As of 9:53 AM on Saturday 20 Dec 2014 (Local Time) from KAMA Reporting Station
Haze Haze  
Wind Chill: 24°   Ceiling: 200
Heat Index: 32°   Visibility: 0.25mi
Dew Point: 31°   Wind: 9mph
Humidity: 96%   Direction: 240°WSW
Pressure: 30.12"   Gusts: NA
Location:  35.21°N, 101.83°W
Report Text: KAMA 201553Z 24008KT 1/4SM R04/3000VP6000FT BR VV002 00/M01 A3012 RMK AO2 SFC VIS 1 SLP208 T00001006
Loading
Personal Weather Stations






























Interactive Weather Map New forecast layout! Learn more

10-Day Weather Forecast

Advertisements
Track Severe Weather on mobile